Time;durP1;ratioP1;P1;durP2;ratioP2;P2;SDS_P1;SDS_P2;PMS_P1;PMS_P2;Temp;Humidity;BMP_temperature;BMP_pressure;BME280_temperature;BME280_humidity;BME280_pressure;Samples;Min_cycle;Max_cycle;Signal;HPM_P1;HPM_P2
2022/03/06 00:00:52;;;;;;;9.35;6.43;;;;;;;;;;5074406;28;20498;-47
2022/03/06 00:03:18;;;;;;;10.50;6.88;;;;;;;;;;5074213;28;20052;-48
2022/03/06 00:05:44;;;;;;;10.80;6.50;;;;;;;;;;5074329;28;20024;-48
2022/03/06 00:08:10;;;;;;;9.05;6.13;;;;;;;;;;5074288;28;20039;-47
2022/03/06 00:10:36;;;;;;;12.27;7.22;;;;;;;;;;5074218;28;20536;-47
2022/03/06 00:13:02;;;;;;;10.57;7.10;;;;;;;;;;5074224;28;20029;-47
2022/03/06 00:15:28;;;;;;;10.10;6.50;;;;;;;;;;5074389;28;20051;-47
2022/03/06 00:17:55;;;;;;;10.23;6.65;;;;;;;;;;5074127;28;20068;-48
2022/03/06 00:20:21;;;;;;;11.70;6.80;;;;;;;;;;5074011;28;20098;-48
2022/03/06 00:22:47;;;;;;;10.10;7.03;;;;;;;;;;5074019;28;20463;-47
2022/03/06 00:25:13;;;;;;;9.88;6.30;;;;;;;;;;5073252;28;20028;-47
2022/03/06 00:27:39;;;;;;;12.45;6.97;;;;;;;;;;5074161;28;20051;-48
2022/03/06 00:30:05;;;;;;;11.30;6.93;;;;;;;;;;5073854;28;20036;-47
2022/03/06 00:32:31;;;;;;;10.93;7.10;;;;;;;;;;5074044;28;20029;-47
2022/03/06 00:34:57;;;;;;;10.20;6.55;;;;;;;;;;5073822;28;20039;-47
2022/03/06 00:37:23;;;;;;;11.18;7.05;;;;;;;;;;5073691;28;20111;-47
2022/03/06 00:39:49;;;;;;;10.90;6.90;;;;;;;;;;5073665;28;20071;-47
2022/03/06 00:42:15;;;;;;;13.07;7.10;;;;;;;;;;5073590;28;20029;-47
2022/03/06 00:44:41;;;;;;;10.05;6.60;;;;;;;;;;5073558;28;20109;-46
2022/03/06 00:47:07;;;;;;;10.85;7.15;;;;;;;;;;5073497;28;20024;-47
2022/03/06 00:49:33;;;;;;;11.20;6.85;;;;;;;;;;5073446;28;20028;-48
2022/03/06 00:51:59;;;;;;;11.80;6.85;;;;;;;;;;5073401;28;20048;-46
2022/03/06 00:54:26;;;;;;;11.02;7.38;;;;;;;;;;5073536;28;20106;-58
2022/03/06 00:56:52;;;;;;;11.98;6.50;;;;;;;;;;5073174;28;20039;-60
2022/03/06 00:59:18;;;;;;;13.43;7.55;;;;;;;;;;5073252;28;20036;-59
2022/03/06 01:01:43;;;;;;;9.55;6.30;;;;;;;;;;5073440;28;20108;-59
2022/03/06 01:04:09;;;;;;;10.10;6.97;;;;;;;;;;5073111;28;20040;-60
2022/03/06 01:06:36;;;;;;;10.23;6.95;;;;;;;;;;5073170;28;20442;-60
2022/03/06 01:09:02;;;;;;;9.93;6.45;;;;;;;;;;5073366;28;20033;-59
2022/03/06 01:11:28;;;;;;;10.00;7.10;;;;;;;;;;5073097;28;20063;-59
2022/03/06 01:13:54;;;;;;;11.80;7.15;;;;;;;;;;5073085;28;20060;-60
2022/03/06 01:16:20;;;;;;;9.98;6.75;;;;;;;;;;5072975;28;20086;-60
2022/03/06 01:18:46;;;;;;;10.52;7.05;;;;;;;;;;5072788;28;20037;-60
2022/03/06 01:21:12;;;;;;;12.80;7.20;;;;;;;;;;5072918;28;20040;-60
2022/03/06 01:23:38;;;;;;;9.68;6.68;;;;;;;;;;5072816;28;20028;-60
2022/03/06 01:26:04;;;;;;;9.48;6.43;;;;;;;;;;5072818;28;20028;-60
2022/03/06 01:28:30;;;;;;;10.52;6.57;;;;;;;;;;5072992;28;20028;-60
2022/03/06 01:30:56;;;;;;;9.98;6.45;;;;;;;;;;5072711;28;20141;-60
2022/03/06 01:33:22;;;;;;;9.00;6.32;;;;;;;;;;5072677;28;20025;-60
2022/03/06 01:35:48;;;;;;;10.93;6.70;;;;;;;;;;5072605;28;20499;-60
2022/03/06 01:38:14;;;;;;;10.05;6.40;;;;;;;;;;5072567;28;20082;-59
2022/03/06 01:40:40;;;;;;;10.10;6.30;;;;;;;;;;5072525;28;20483;-60
2022/03/06 01:43:06;;;;;;;9.35;6.55;;;;;;;;;;5072593;28;20025;-59
2022/03/06 01:45:32;;;;;;;10.70;6.85;;;;;;;;;;5072513;28;20665;-60
2022/03/06 01:47:59;;;;;;;10.20;6.90;;;;;;;;;;5072500;28;20090;-59
2022/03/06 01:50:30;;;;;;;10.55;7.10;;;;;;;;;;5072584;28;20106;-48
2022/03/06 01:53:01;;;;;;;10.90;6.45;;;;;;;;;;5072469;28;20021;-48
2022/03/06 01:55:27;;;;;;;9.25;6.53;;;;;;;;;;5072785;28;20024;-48
2022/03/06 01:57:57;;;;;;;9.18;6.25;;;;;;;;;;5072315;28;20119;-47
2022/03/06 02:00:29;;;;;;;9.50;6.78;;;;;;;;;;5072500;28;20033;-47
2022/03/06 02:02:55;;;;;;;10.88;7.25;;;;;;;;;;5072028;28;20055;-48
2022/03/06 02:05:21;;;;;;;9.98;6.45;;;;;;;;;;5072328;28;20020;-48
2022/03/06 02:07:47;;;;;;;11.02;7.07;;;;;;;;;;5072314;28;20052;-47
2022/03/06 02:10:14;;;;;;;10.48;6.75;;;;;;;;;;5072326;28;20067;-47
2022/03/06 02:12:40;;;;;;;10.02;6.50;;;;;;;;;;5072487;28;20078;-48
2022/03/06 02:15:12;;;;;;;8.07;6.15;;;;;;;;;;5072227;28;20035;-47
2022/03/06 02:17:39;;;;;;;9.50;6.68;;;;;;;;;;5072181;28;20025;-47
2022/03/06 02:20:15;;;;;;;9.57;6.28;;;;;;;;;;5072181;28;20376;-49
2022/03/06 02:22:42;;;;;;;9.05;6.43;;;;;;;;;;5072408;28;20031;-48
2022/03/06 02:25:15;;;;;;;9.15;6.43;;;;;;;;;;5072423;28;20090;-47
2022/03/06 02:27:42;;;;;;;9.93;6.13;;;;;;;;;;5072464;28;20044;-46
2022/03/06 02:30:09;;;;;;;9.60;6.25;;;;;;;;;;5072108;28;20025;-47
2022/03/06 02:32:38;;;;;;;7.47;5.78;;;;;;;;;;5072109;28;20487;-48
2022/03/06 02:35:05;;;;;;;9.05;6.18;;;;;;;;;;5072035;28;20024;-47
2022/03/06 02:37:31;;;;;;;9.73;6.03;;;;;;;;;;5071951;28;20483;-48
2022/03/06 02:40:05;;;;;;;8.98;6.15;;;;;;;;;;5071938;28;20082;-47
2022/03/06 02:42:37;;;;;;;7.28;5.22;;;;;;;;;;5072041;28;20078;-49
2022/03/06 02:45:28;;;;;;;9.50;6.03;;;;;;;;;;5072008;28;20029;-47
2022/03/06 02:47:55;;;;;;;8.18;5.65;;;;;;;;;;5072039;28;20437;-47
2022/03/06 02:50:23;;;;;;;8.20;5.30;;;;;;;;;;5075751;28;20028;-47
2022/03/06 02:52:49;;;;;;;8.00;5.65;;;;;;;;;;5075746;28;20111;-47
2022/03/06 02:55:16;;;;;;;8.82;5.45;;;;;;;;;;5075624;28;20066;-47
2022/03/06 02:57:42;;;;;;;9.02;5.60;;;;;;;;;;5075528;28;20168;-48
2022/03/06 03:00:10;;;;;;;7.95;5.53;;;;;;;;;;5075578;28;20036;-48
2022/03/06 03:02:37;;;;;;;8.27;5.63;;;;;;;;;;5075332;28;20072;-47
2022/03/06 03:05:03;;;;;;;7.25;5.32;;;;;;;;;;5075465;28;20036;-47
2022/03/06 03:07:29;;;;;;;8.45;6.13;;;;;;;;;;5075465;28;20020;-48
2022/03/06 03:09:55;;;;;;;8.13;5.32;;;;;;;;;;5075469;28;20070;-48
2022/03/06 03:12:21;;;;;;;7.63;5.90;;;;;;;;;;5075602;28;20020;-48
2022/03/06 03:14:47;;;;;;;6.97;5.05;;;;;;;;;;5075353;28;20548;-47
2022/03/06 03:17:13;;;;;;;8.88;6.00;;;;;;;;;;5075484;28;20027;-48
2022/03/06 03:19:39;;;;;;;7.68;5.60;;;;;;;;;;5075176;28;20399;-46
2022/03/06 03:22:05;;;;;;;7.45;5.43;;;;;;;;;;5075260;28;20024;-48
2022/03/06 03:24:31;;;;;;;9.18;5.47;;;;;;;;;;5075102;28;20031;-47
2022/03/06 03:26:57;;;;;;;9.63;5.32;;;;;;;;;;5075036;28;20021;-47
2022/03/06 03:29:23;;;;;;;8.38;5.30;;;;;;;;;;5073678;28;20036;-47
2022/03/06 03:31:49;;;;;;;7.25;5.15;;;;;;;;;;5074986;28;20020;-47
2022/03/06 03:34:15;;;;;;;7.38;4.80;;;;;;;;;;5074918;28;20036;-47
2022/03/06 03:36:42;;;;;;;6.63;4.80;;;;;;;;;;5074910;28;20025;-47
2022/03/06 03:39:08;;;;;;;7.47;4.78;;;;;;;;;;5075111;28;20036;-49
2022/03/06 03:41:34;;;;;;;7.38;5.18;;;;;;;;;;5074910;28;20024;-60
2022/03/06 03:44:00;;;;;;;6.47;4.65;;;;;;;;;;5074792;28;20032;-60
2022/03/06 03:46:26;;;;;;;7.47;5.07;;;;;;;;;;5074710;28;20024;-60
2022/03/06 03:48:52;;;;;;;5.93;4.18;;;;;;;;;;5074750;28;20033;-60
2022/03/06 03:51:18;;;;;;;7.07;4.80;;;;;;;;;;5074915;28;20534;-60
2022/03/06 03:53:44;;;;;;;5.75;4.45;;;;;;;;;;5074660;28;20025;-60
2022/03/06 03:56:10;;;;;;;6.03;4.25;;;;;;;;;;5074645;28;20502;-60
2022/03/06 03:58:36;;;;;;;6.53;4.50;;;;;;;;;;5074547;28;20483;-60
2022/03/06 04:01:03;;;;;;;6.30;4.28;;;;;;;;;;5073383;28;20048;-60
2022/03/06 04:03:28;;;;;;;5.43;4.28;;;;;;;;;;5074165;28;20045;-60
2022/03/06 04:05:54;;;;;;;6.50;4.53;;;;;;;;;;5074409;28;20394;-60
2022/03/06 04:08:21;;;;;;;6.53;4.50;;;;;;;;;;5074199;28;20029;-59
2022/03/06 04:10:47;;;;;;;6.05;4.40;;;;;;;;;;5074296;28;20104;-60
2022/03/06 04:13:13;;;;;;;7.18;4.55;;;;;;;;;;5074266;28;20063;-61
2022/03/06 04:15:39;;;;;;;5.47;4.10;;;;;;;;;;5074211;28;20112;-60
2022/03/06 04:18:05;;;;;;;6.38;4.93;;;;;;;;;;5074139;28;20029;-60
2022/03/06 04:20:31;;;;;;;5.93;4.40;;;;;;;;;;5074116;28;20036;-60
2022/03/06 04:22:57;;;;;;;6.65;4.07;;;;;;;;;;5074034;28;20029;-60
2022/03/06 04:25:23;;;;;;;7.63;4.75;;;;;;;;;;5073959;28;20032;-60
2022/03/06 04:27:50;;;;;;;5.38;4.47;;;;;;;;;;5073962;28;20103;-60
2022/03/06 04:30:16;;;;;;;5.68;4.13;;;;;;;;;;5073900;28;20028;-60
2022/03/06 04:32:42;;;;;;;5.88;4.18;;;;;;;;;;5073856;28;20101;-60
2022/03/06 04:35:08;;;;;;;6.38;4.22;;;;;;;;;;5073997;28;20044;-60
2022/03/06 04:37:34;;;;;;;5.03;3.83;;;;;;;;;;5073714;28;20036;-60
2022/03/06 04:40:00;;;;;;;5.78;4.22;;;;;;;;;;5073732;28;20029;-60
2022/03/06 04:42:26;;;;;;;5.50;4.07;;;;;;;;;;5073663;28;20100;-60
2022/03/06 04:44:52;;;;;;;6.53;4.32;;;;;;;;;;5073916;28;20082;-60
2022/03/06 04:47:18;;;;;;;6.00;4.15;;;;;;;;;;5073561;28;20033;-60
2022/03/06 04:49:44;;;;;;;6.43;4.20;;;;;;;;;;5073476;28;20115;-60
2022/03/06 04:52:10;;;;;;;4.53;3.63;;;;;;;;;;5073792;28;20052;-60
2022/03/06 04:54:36;;;;;;;5.88;3.78;;;;;;;;;;5073518;28;20024;-59
2022/03/06 04:57:02;;;;;;;4.78;4.00;;;;;;;;;;5073320;28;20670;-60
2022/03/06 04:59:28;;;;;;;6.97;4.18;;;;;;;;;;5073218;28;20040;-60
2022/03/06 05:01:55;;;;;;;5.03;4.10;;;;;;;;;;5073011;28;20028;-59
2022/03/06 05:04:21;;;;;;;5.28;4.20;;;;;;;;;;5073211;28;20044;-60
2022/03/06 05:06:47;;;;;;;5.72;4.00;;;;;;;;;;5073163;28;20158;-60
2022/03/06 05:09:13;;;;;;;5.28;4.45;;;;;;;;;;5073084;28;20031;-60
2022/03/06 05:11:39;;;;;;;5.80;4.10;;;;;;;;;;5072884;28;20103;-60
2022/03/06 05:14:05;;;;;;;4.82;3.55;;;;;;;;;;5073104;28;20104;-60
2022/03/06 05:16:31;;;;;;;4.70;4.07;;;;;;;;;;5072955;28;20035;-60
2022/03/06 05:18:57;;;;;;;5.40;4.00;;;;;;;;;;5072926;28;20040;-60
2022/03/06 05:21:23;;;;;;;3.90;3.50;;;;;;;;;;5072894;28;20113;-60
2022/03/06 05:23:49;;;;;;;4.95;3.42;;;;;;;;;;5072865;28;20074;-60
2022/03/06 05:26:15;;;;;;;5.47;3.97;;;;;;;;;;5072867;28;20028;-60
2022/03/06 05:28:41;;;;;;;5.35;3.78;;;;;;;;;;5072800;28;20029;-60
2022/03/06 05:31:08;;;;;;;5.57;4.00;;;;;;;;;;5072882;28;20442;-60
2022/03/06 05:33:34;;;;;;;4.57;3.85;;;;;;;;;;5073037;28;20186;-60
2022/03/06 05:36:00;;;;;;;4.57;3.85;;;;;;;;;;5072646;28;20612;-60
2022/03/06 05:38:26;;;;;;;5.70;4.53;;;;;;;;;;5072603;28;20040;-60
2022/03/06 05:40:52;;;;;;;6.25;4.13;;;;;;;;;;5072604;28;20624;-60
2022/03/06 05:43:18;;;;;;;5.63;4.07;;;;;;;;;;5072625;28;20028;-60
2022/03/06 05:45:52;;;;;;;6.15;3.88;;;;;;;;;;5072516;28;20028;-60
2022/03/06 05:48:27;;;;;;;4.00;3.45;;;;;;;;;;5072634;28;20120;-60
2022/03/06 05:50:53;;;;;;;6.90;4.60;;;;;;;;;;5071220;28;20031;-59
2022/03/06 05:53:20;;;;;;;4.63;3.72;;;;;;;;;;5072486;28;20107;-59
2022/03/06 05:55:46;;;;;;;5.10;3.85;;;;;;;;;;5072393;28;20026;-59
2022/03/06 05:58:12;;;;;;;4.75;3.90;;;;;;;;;;5072336;28;20040;-60
2022/03/06 06:00:38;;;;;;;5.57;4.20;;;;;;;;;;5072420;28;20024;-60
2022/03/06 06:03:04;;;;;;;5.93;3.60;;;;;;;;;;5072085;28;20579;-60
2022/03/06 06:05:30;;;;;;;4.43;3.35;;;;;;;;;;5072383;28;20103;-60
2022/03/06 06:07:56;;;;;;;4.68;3.70;;;;;;;;;;5072464;28;20054;-60
2022/03/06 06:10:22;;;;;;;4.55;3.78;;;;;;;;;;5072330;28;20659;-60
2022/03/06 06:12:48;;;;;;;4.30;3.50;;;;;;;;;;5072277;28;20528;-60
2022/03/06 06:15:14;;;;;;;3.47;3.00;;;;;;;;;;5072263;28;20029;-60
2022/03/06 06:17:40;;;;;;;3.38;3.08;;;;;;;;;;5072145;28;20032;-59
2022/03/06 06:20:07;;;;;;;5.15;3.67;;;;;;;;;;5072181;28;20036;-60
2022/03/06 06:22:34;;;;;;;5.80;3.33;;;;;;;;;;5072192;28;20475;-60
2022/03/06 06:25:00;;;;;;;3.72;3.15;;;;;;;;;;5076244;28;20029;-60
2022/03/06 06:27:26;;;;;;;4.72;3.20;;;;;;;;;;5076300;28;20033;-60
2022/03/06 06:29:53;;;;;;;4.35;3.03;;;;;;;;;;5076264;28;20032;-59
2022/03/06 06:32:19;;;;;;;3.47;3.15;;;;;;;;;;5076194;28;20039;-60
2022/03/06 06:34:45;;;;;;;3.75;3.30;;;;;;;;;;5074801;28;20103;-60
2022/03/06 06:37:11;;;;;;;4.25;3.13;;;;;;;;;;5076102;28;20021;-60
2022/03/06 06:39:37;;;;;;;5.22;3.38;;;;;;;;;;5075955;28;20488;-60
2022/03/06 06:42:03;;;;;;;4.15;3.17;;;;;;;;;;5075962;28;20468;-60
2022/03/06 06:44:29;;;;;;;3.25;2.95;;;;;;;;;;5076107;28;20052;-60
2022/03/06 06:46:55;;;;;;;3.75;3.13;;;;;;;;;;5075880;28;20419;-60
2022/03/06 06:49:22;;;;;;;3.55;2.80;;;;;;;;;;5075816;28;20063;-60
2022/03/06 06:51:48;;;;;;;4.28;3.08;;;;;;;;;;5076147;28;20029;-60
2022/03/06 06:54:15;;;;;;;3.38;2.88;;;;;;;;;;5075747;28;20479;-60
2022/03/06 06:56:41;;;;;;;3.13;2.55;;;;;;;;;;5076016;28;20024;-60
2022/03/06 06:59:07;;;;;;;3.30;2.50;;;;;;;;;;5075509;28;20040;-59
2022/03/06 07:01:33;;;;;;;3.45;2.65;;;;;;;;;;5075633;28;20078;-60
2022/03/06 07:03:59;;;;;;;3.08;2.75;;;;;;;;;;5075382;28;20057;-60
2022/03/06 07:06:25;;;;;;;2.50;2.28;;;;;;;;;;5075505;28;20025;-60
2022/03/06 07:08:51;;;;;;;2.97;2.67;;;;;;;;;;5075680;28;20025;-60
2022/03/06 07:11:17;;;;;;;3.13;2.78;;;;;;;;;;5075208;28;20027;-60
2022/03/06 07:13:43;;;;;;;3.50;2.47;;;;;;;;;;5075360;28;20032;-60
2022/03/06 07:16:09;;;;;;;2.53;2.17;;;;;;;;;;5075322;28;20364;-60
2022/03/06 07:18:35;;;;;;;2.67;2.35;;;;;;;;;;5075226;28;20120;-60
2022/03/06 07:21:04;;;;;;;2.65;2.25;;;;;;;;;;5075261;28;20055;-60
2022/03/06 07:23:31;;;;;;;2.47;2.28;;;;;;;;;;5075193;28;20083;-60
2022/03/06 07:25:57;;;;;;;3.50;2.50;;;;;;;;;;5075209;28;20039;-60
2022/03/06 07:28:23;;;;;;;3.33;2.33;;;;;;;;;;5075102;28;20103;-59
2022/03/06 07:30:49;;;;;;;2.83;2.10;;;;;;;;;;5075094;28;20106;-60
2022/03/06 07:33:15;;;;;;;2.72;1.80;;;;;;;;;;5075026;28;20109;-59
2022/03/06 07:35:41;;;;;;;3.15;2.40;;;;;;;;;;5075155;28;20047;-59
2022/03/06 07:38:07;;;;;;;3.20;2.17;;;;;;;;;;5074860;28;20037;-60
2022/03/06 07:40:33;;;;;;;3.15;2.50;;;;;;;;;;5074886;28;20472;-60
2022/03/06 07:42:59;;;;;;;2.60;2.35;;;;;;;;;;5074833;28;20024;-59
2022/03/06 07:45:25;;;;;;;3.38;2.70;;;;;;;;;;5074794;28;20467;-59
2022/03/06 07:47:52;;;;;;;2.33;2.13;;;;;;;;;;5075032;28;20029;-60
2022/03/06 07:50:18;;;;;;;2.92;2.63;;;;;;;;;;5074628;28;20028;-60
2022/03/06 07:52:44;;;;;;;3.78;2.58;;;;;;;;;;5074710;28;20494;-59
2022/03/06 07:55:10;;;;;;;3.28;2.63;;;;;;;;;;5074580;28;20101;-59
2022/03/06 07:57:36;;;;;;;3.25;2.47;;;;;;;;;;5074554;28;20689;-59
2022/03/06 08:00:04;;;;;;;2.83;2.20;;;;;;;;;;5074546;28;20052;-60
2022/03/06 08:02:30;;;;;;;3.15;2.42;;;;;;;;;;5074329;28;20045;-60
2022/03/06 08:04:56;;;;;;;2.80;2.17;;;;;;;;;;5074448;28;20025;-60
2022/03/06 08:07:22;;;;;;;4.95;2.67;;;;;;;;;;5074401;28;20025;-60
2022/03/06 08:09:48;;;;;;;3.42;2.45;;;;;;;;;;5074348;28;20027;-60
2022/03/06 08:12:14;;;;;;;4.15;2.78;;;;;;;;;;5074059;28;20435;-59
2022/03/06 08:14:40;;;;;;;2.90;2.47;;;;;;;;;;5072862;28;20029;-59
2022/03/06 08:17:06;;;;;;;3.17;2.67;;;;;;;;;;5074121;28;20028;-59
2022/03/06 08:19:32;;;;;;;2.75;2.40;;;;;;;;;;5073944;28;20072;-59
2022/03/06 08:21:58;;;;;;;3.53;2.03;;;;;;;;;;5073979;28;20025;-59
2022/03/06 08:24:24;;;;;;;3.47;2.50;;;;;;;;;;5073825;28;20036;-59
2022/03/06 08:26:50;;;;;;;3.28;2.00;;;;;;;;;;5073818;28;20504;-59
2022/03/06 08:29:16;;;;;;;4.57;2.30;;;;;;;;;;5073763;28;20028;-59
2022/03/06 08:31:42;;;;;;;2.42;2.10;;;;;;;;;;5073653;28;20475;-56
2022/03/06 08:34:09;;;;;;;2.45;1.83;;;;;;;;;;5073800;28;20032;-57
2022/03/06 08:36:35;;;;;;;2.28;2.08;;;;;;;;;;5073555;28;20029;-58
2022/03/06 08:39:01;;;;;;;4.97;2.35;;;;;;;;;;5073532;28;20080;-56
2022/03/06 08:41:27;;;;;;;3.50;2.17;;;;;;;;;;5073837;28;20028;-57
2022/03/06 08:43:53;;;;;;;4.20;2.08;;;;;;;;;;5073457;28;20089;-57
2022/03/06 08:46:19;;;;;;;4.47;2.70;;;;;;;;;;5072996;28;20021;-57
2022/03/06 08:48:44;;;;;;;2.40;2.20;;;;;;;;;;5073342;28;20028;-59
2022/03/06 08:51:10;;;;;;;3.65;2.42;;;;;;;;;;5073336;28;20102;-57
2022/03/06 08:53:36;;;;;;;5.10;2.42;;;;;;;;;;5073602;28;20021;-56
2022/03/06 08:56:02;;;;;;;7.47;2.33;;;;;;;;;;5073314;28;20493;-58
2022/03/06 08:58:28;;;;;;;6.70;2.30;;;;;;;;;;5073144;28;20054;-58
2022/03/06 09:00:54;;;;;;;6.05;2.97;;;;;;;;;;5073337;28;20104;-58
2022/03/06 09:03:21;;;;;;;3.08;2.22;;;;;;;;;;5073086;28;20068;-57
2022/03/06 09:05:47;;;;;;;3.22;2.05;;;;;;;;;;5073172;28;20025;-58
2022/03/06 09:08:13;;;;;;;2.15;1.70;;;;;;;;;;5073208;28;20034;-58
2022/03/06 09:10:39;;;;;;;3.13;1.85;;;;;;;;;;5073148;28;20097;-58
2022/03/06 09:13:06;;;;;;;2.22;1.83;;;;;;;;;;5073157;28;20039;-58
2022/03/06 09:15:32;;;;;;;4.90;1.58;;;;;;;;;;5073004;28;20033;-58
2022/03/06 09:17:58;;;;;;;3.13;1.50;;;;;;;;;;5072900;28;20040;-58
2022/03/06 09:20:24;;;;;;;3.08;1.83;;;;;;;;;;5072949;28;20040;-58
2022/03/06 09:22:50;;;;;;;3.53;1.80;;;;;;;;;;5072884;28;20017;-58
2022/03/06 09:25:17;;;;;;;2.65;1.55;;;;;;;;;;5072862;28;20028;-57
2022/03/06 09:27:43;;;;;;;3.22;1.65;;;;;;;;;;5072789;28;20028;-58
2022/03/06 09:30:09;;;;;;;2.40;1.40;;;;;;;;;;5072934;28;20107;-57
2022/03/06 09:32:35;;;;;;;2.60;1.80;;;;;;;;;;5072714;28;20035;-57
2022/03/06 09:35:01;;;;;;;1.95;1.33;;;;;;;;;;5072756;28;20481;-58
2022/03/06 09:37:27;;;;;;;2.70;1.85;;;;;;;;;;5072705;28;20028;-56
2022/03/06 09:39:54;;;;;;;1.50;1.40;;;;;;;;;;5072580;28;20168;-58
2022/03/06 09:42:20;;;;;;;2.00;1.35;;;;;;;;;;5072689;28;20024;-58
2022/03/06 09:44:47;;;;;;;3.58;1.85;;;;;;;;;;5072608;28;20028;-58
2022/03/06 09:47:13;;;;;;;2.72;1.45;;;;;;;;;;5072546;28;20513;-48
2022/03/06 09:49:42;;;;;;;3.50;1.65;;;;;;;;;;5072495;28;20468;-46
2022/03/06 09:52:08;;;;;;;2.15;1.52;;;;;;;;;;5072486;28;20048;-47
2022/03/06 09:54:34;;;;;;;1.70;1.15;;;;;;;;;;5072401;28;20033;-47
2022/03/06 09:57:01;;;;;;;3.70;1.30;;;;;;;;;;5072274;28;20028;-48
2022/03/06 09:59:27;;;;;;;3.58;1.45;;;;;;;;;;5071886;28;20122;-48
2022/03/06 10:01:53;;;;;;;2.53;1.00;;;;;;;;;;5072199;28;20028;-48
2022/03/06 10:04:29;;;;;;;3.38;1.67;;;;;;;;;;5072328;28;20040;-49
2022/03/06 10:07:11;;;;;;;2.63;1.27;;;;;;;;;;5072547;28;20048;-48
2022/03/06 10:10:10;;;;;;;1.15;1.02;;;;;;;;;;5072139;28;20025;-47
2022/03/06 10:12:40;;;;;;;1.77;1.17;;;;;;;;;;5070525;28;20060;-48
2022/03/06 10:15:07;;;;;;;1.33;1.23;;;;;;;;;;5072082;28;20035;-47
2022/03/06 10:17:34;;;;;;;1.67;1.15;;;;;;;;;;5072357;28;20336;-47
2022/03/06 10:20:02;;;;;;;3.70;1.42;;;;;;;;;;5071953;28;20043;-47
2022/03/06 10:22:29;;;;;;;2.03;1.10;;;;;;;;;;5072083;28;20082;-48
2022/03/06 10:24:57;;;;;;;2.35;1.25;;;;;;;;;;5072122;28;20228;-47
2022/03/06 10:27:57;;;;;;;2.85;1.42;;;;;;;;;;5070841;28;20028;-58
2022/03/06 10:30:30;;;;;;;3.78;1.05;;;;;;;;;;5071777;28;20029;-56
2022/03/06 10:32:57;;;;;;;2.22;1.40;;;;;;;;;;5071747;28;20643;-57
2022/03/06 10:35:39;;;;;;;1.42;1.10;;;;;;;;;;5071735;28;20040;-57
2022/03/06 10:38:27;;;;;;;2.28;1.20;;;;;;;;;;5071642;28;20029;-55
2022/03/06 10:41:08;;;;;;;2.92;1.00;;;;;;;;;;5071660;28;20028;-56
2022/03/06 10:43:34;;;;;;;;;;;;;;;;;;5072164;28;20433;-57
2022/03/06 10:46:08;;;;;;;1.58;1.20;;;;;;;;;;5071665;28;19966;-57
2022/03/06 10:48:35;;;;;;;2.88;1.13;;;;;;;;;;5071957;28;20028;-56
2022/03/06 10:51:02;;;;;;;1.73;1.00;;;;;;;;;;5071613;28;20371;-57
2022/03/06 10:53:31;;;;;;;3.10;1.20;;;;;;;;;;5071923;28;20028;-57
2022/03/06 10:56:06;;;;;;;1.80;1.00;;;;;;;;;;5071659;28;20036;-57
2022/03/06 10:58:33;;;;;;;1.15;1.00;;;;;;;;;;5071714;28;20039;-56
2022/03/06 11:00:59;;;;;;;1.02;0.93;;;;;;;;;;5071761;28;20094;-58
2022/03/06 11:03:26;;;;;;;1.60;1.15;;;;;;;;;;5071548;28;20457;-57
2022/03/06 11:05:52;;;;;;;1.52;0.90;;;;;;;;;;5071768;28;20029;-58
2022/03/06 11:08:18;;;;;;;1.40;0.85;;;;;;;;;;5071675;28;20020;-57
2022/03/06 11:10:44;;;;;;;1.70;1.10;;;;;;;;;;5074933;28;20024;-56
2022/03/06 11:13:14;;;;;;;2.28;0.82;;;;;;;;;;5075374;28;20032;-55
2022/03/06 11:15:41;;;;;;;1.38;1.08;;;;;;;;;;5075350;28;20027;-58
2022/03/06 11:18:07;;;;;;;1.40;1.00;;;;;;;;;;5075202;28;20040;-56
2022/03/06 11:20:34;;;;;;;1.10;1.00;;;;;;;;;;5075133;28;20040;-57
2022/03/06 11:23:20;;;;;;;1.85;1.17;;;;;;;;;;5075449;28;20024;-55
2022/03/06 11:25:51;;;;;;;1.23;1.10;;;;;;;;;;5075140;28;20046;-57
2022/03/06 11:28:42;;;;;;;8.18;1.13;;;;;;;;;;5075005;28;20059;-58
2022/03/06 11:31:08;;;;;;;2.28;1.17;;;;;;;;;;5075107;28;20025;-58
2022/03/06 11:33:35;;;;;;;1.98;0.95;;;;;;;;;;5074888;28;20600;-57
2022/03/06 11:36:16;;;;;;;3.88;1.25;;;;;;;;;;5074947;28;20024;-57
2022/03/06 11:38:46;;;;;;;2.28;1.52;;;;;;;;;;5074946;28;20108;-59
2022/03/06 11:41:12;;;;;;;2.23;1.07;;;;;;;;;;5074861;28;20112;-57
2022/03/06 11:43:44;;;;;;;2.58;1.40;;;;;;;;;;5074825;28;20028;-57
2022/03/06 11:46:12;;;;;;;4.85;1.30;;;;;;;;;;5074758;28;20025;-59
2022/03/06 11:48:37;;;;;;;1.13;1.02;;;;;;;;;;5074514;28;20471;-58
2022/03/06 11:51:21;;;;;;;1.80;1.00;;;;;;;;;;5074556;28;20036;-58
2022/03/06 11:53:57;;;;;;;2.83;1.20;;;;;;;;;;5074493;28;20062;-58
2022/03/06 11:56:46;;;;;;;3.15;1.35;;;;;;;;;;5074470;28;20025;-56
2022/03/06 11:59:27;;;;;;;1.05;1.00;;;;;;;;;;5074183;28;20392;-58
2022/03/06 12:01:54;;;;;;;1.58;1.15;;;;;;;;;;5073994;28;20028;-57
2022/03/06 12:04:33;;;;;;;2.15;1.10;;;;;;;;;;5074069;28;20036;-58
2022/03/06 12:07:00;;;;;;;1.42;0.90;;;;;;;;;;5074170;28;20020;-59
2022/03/06 12:09:28;;;;;;;4.25;1.08;;;;;;;;;;5074346;28;20047;-58
2022/03/06 12:11:58;;;;;;;3.33;1.67;;;;;;;;;;5074379;28;20085;-57
2022/03/06 12:14:40;;;;;;;1.85;0.90;;;;;;;;;;5074352;28;20028;-58
2022/03/06 12:17:07;;;;;;;4.32;1.17;;;;;;;;;;5074134;28;20059;-59
2022/03/06 12:19:35;;;;;;;1.90;0.80;;;;;;;;;;5073880;28;20016;-58
2022/03/06 12:22:23;;;;;;;1.83;0.90;;;;;;;;;;5072961;28;20043;-58
2022/03/06 12:25:18;;;;;;;1.65;1.05;;;;;;;;;;5073924;28;20028;-58
2022/03/06 12:28:04;;;;;;;1.55;1.00;;;;;;;;;;5064731;28;20051;-59
2022/03/06 12:30:32;;;;;;;1.58;1.10;;;;;;;;;;5066344;28;20033;-58
2022/03/06 12:32:58;;;;;;;1.77;1.02;;;;;;;;;;5073775;28;20037;-58
2022/03/06 12:35:25;;;;;;;1.75;1.00;;;;;;;;;;5073671;28;20029;-59
2022/03/06 12:37:59;;;;;;;2.03;1.20;;;;;;;;;;5073543;28;20033;-58
2022/03/06 12:40:27;;;;;;;0.88;0.88;;;;;;;;;;5073716;28;20029;-58
2022/03/06 12:43:11;;;;;;;1.60;1.10;;;;;;;;;;5073744;28;20401;-58
2022/03/06 12:45:37;;;;;;;1.25;0.90;;;;;;;;;;5073426;28;20031;-57
2022/03/06 12:48:03;;;;;;;1.77;1.10;;;;;;;;;;5073285;28;20104;-58
2022/03/06 12:50:29;;;;;;;1.52;1.00;;;;;;;;;;5073312;28;20028;-57
2022/03/06 12:52:56;;;;;;;2.85;1.13;;;;;;;;;;5073262;28;20031;-58
2022/03/06 12:55:23;;;;;;;1.77;0.90;;;;;;;;;;5073166;28;20071;-58
2022/03/06 12:57:51;;;;;;;2.15;1.00;;;;;;;;;;5073433;28;20024;-57
2022/03/06 13:00:18;;;;;;;3.45;0.80;;;;;;;;;;5072990;28;20537;-57
2022/03/06 13:02:49;;;;;;;1.88;0.80;;;;;;;;;;5072836;28;20088;-59
2022/03/06 13:05:16;;;;;;;1.30;1.20;;;;;;;;;;5073075;28;20027;-58
2022/03/06 13:07:42;;;;;;;1.25;0.85;;;;;;;;;;5072965;28;20090;-56
2022/03/06 13:10:11;;;;;;;0.90;0.80;;;;;;;;;;5073040;28;20032;-57
2022/03/06 13:12:38;;;;;;;5.38;0.90;;;;;;;;;;5072737;28;20056;-57
2022/03/06 13:15:16;;;;;;;2.50;1.17;;;;;;;;;;5072727;28;20037;-58
2022/03/06 13:17:49;;;;;;;6.47;0.80;;;;;;;;;;5072920;28;20024;-58
2022/03/06 13:20:16;;;;;;;1.05;0.95;;;;;;;;;;5072802;28;20402;-58
2022/03/06 13:22:42;;;;;;;1.10;0.98;;;;;;;;;;5072840;28;20028;-58
2022/03/06 13:25:09;;;;;;;1.42;0.88;;;;;;;;;;5072855;28;20040;-58
2022/03/06 13:27:39;;;;;;;1.63;1.00;;;;;;;;;;5072818;28;20033;-57
2022/03/06 13:30:32;;;;;;;1.15;0.95;;;;;;;;;;5073060;28;20111;-57
2022/03/06 13:32:59;;;;;;;1.73;0.88;;;;;;;;;;5072635;28;20033;-57
2022/03/06 13:35:30;;;;;;;1.50;0.60;;;;;;;;;;5072865;28;20024;-58
2022/03/06 13:38:01;;;;;;;8.63;1.00;;;;;;;;;;5072685;28;20474;-57
2022/03/06 13:40:29;;;;;;;1.27;0.90;;;;;;;;;;5072558;28;20032;-59
2022/03/06 13:42:55;;;;;;;1.00;0.90;;;;;;;;;;5072606;28;20029;-58
2022/03/06 13:45:21;;;;;;;3.53;1.00;;;;;;;;;;5072548;28;20020;-58
2022/03/06 13:47:52;;;;;;;1.10;0.70;;;;;;;;;;5072703;28;20103;-59
2022/03/06 13:50:20;;;;;;;1.30;0.95;;;;;;;;;;5072626;28;20058;-59
2022/03/06 13:52:46;;;;;;;3.67;0.90;;;;;;;;;;5072510;28;20033;-58
2022/03/06 13:55:13;;;;;;;0.85;0.65;;;;;;;;;;5072402;28;20070;-58
2022/03/06 13:57:41;;;;;;;1.67;0.88;;;;;;;;;;5072910;28;20026;-58
2022/03/06 14:00:19;;;;;;;1.23;0.80;;;;;;;;;;5072370;28;20467;-58
2022/03/06 14:02:46;;;;;;;1.10;0.90;;;;;;;;;;5072180;28;20173;-58
2022/03/06 14:05:12;;;;;;;1.90;0.77;;;;;;;;;;5072441;28;20085;-59
2022/03/06 14:07:38;;;;;;;1.27;0.98;;;;;;;;;;5072390;28;20483;-48
2022/03/06 14:10:04;;;;;;;1.23;0.80;;;;;;;;;;5072239;28;20025;-48
2022/03/06 14:12:34;;;;;;;5.57;1.15;;;;;;;;;;5072315;28;20033;-48
2022/03/06 14:15:00;;;;;;;;;;;;;;;;;;5072942;28;20097;-49
2022/03/06 14:17:26;;;;;;;0.98;0.82;;;;;;;;;;5072194;28;20091;-47
2022/03/06 14:19:58;;;;;;;1.92;0.80;;;;;;;;;;5072119;28;20396;-49
2022/03/06 14:22:24;;;;;;;1.23;0.60;;;;;;;;;;5072110;28;20094;-49
2022/03/06 14:24:50;;;;;;;1.75;0.70;;;;;;;;;;5072175;28;20024;-48
2022/03/06 14:27:16;;;;;;;1.45;0.80;;;;;;;;;;5072136;28;20107;-48
2022/03/06 14:29:42;;;;;;;0.80;0.65;;;;;;;;;;5072168;28;20498;-47
2022/03/06 14:32:08;;;;;;;1.00;0.90;;;;;;;;;;5071997;28;20052;-48
2022/03/06 14:34:35;;;;;;;1.23;0.57;;;;;;;;;;5072061;28;20426;-48
2022/03/06 14:37:01;;;;;;;1.42;0.93;;;;;;;;;;5072052;28;20384;-47
2022/03/06 14:39:29;;;;;;;0.90;0.77;;;;;;;;;;5071959;28;20059;-47
2022/03/06 14:41:55;;;;;;;1.05;0.50;;;;;;;;;;5071818;28;20032;-48
2022/03/06 14:44:21;;;;;;;1.23;0.85;;;;;;;;;;5072836;28;20483;-48
2022/03/06 14:46:50;;;;;;;1.05;0.80;;;;;;;;;;5076113;28;20069;-48